sensor_id;sensor_type;location;lat;lon;timestamp;temperature;humidity
17202;DHT22;8717;53.588;10.176;2023-11-21T00:00:26;7.80;99.90
17202;DHT22;8717;53.588;10.176;2023-11-21T00:02:53;7.80;99.90
17202;DHT22;8717;53.588;10.176;2023-11-21T00:05:21;7.80;99.90
17202;DHT22;8717;53.588;10.176;2023-11-21T00:07:48;7.70;99.90
17202;DHT22;8717;53.588;10.176;2023-11-21T00:10:16;7.70;99.90
17202;DHT22;8717;53.588;10.176;2023-11-21T00:12:43;7.70;99.90
17202;DHT22;8717;53.588;10.176;2023-11-21T00:15:10;7.60;99.90
17202;DHT22;8717;53.588;10.176;2023-11-21T00:17:37;7.60;99.90
17202;DHT22;8717;53.588;10.176;2023-11-21T00:20:06;7.50;99.90
17202;DHT22;8717;53.588;10.176;2023-11-21T00:22:35;7.50;99.90
17202;DHT22;8717;53.588;10.176;2023-11-21T00:25:02;7.40;99.90
17202;DHT22;8717;53.588;10.176;2023-11-21T00:27:29;7.40;99.90
17202;DHT22;8717;53.588;10.176;2023-11-21T00:29:56;7.40;99.90
17202;DHT22;8717;53.588;10.176;2023-11-21T00:32:23;7.40;99.90
17202;DHT22;8717;53.588;10.176;2023-11-21T00:34:49;7.40;99.90
17202;DHT22;8717;53.588;10.176;2023-11-21T00:37:16;7.30;99.90
17202;DHT22;8717;53.588;10.176;2023-11-21T00:39:44;7.30;99.90
17202;DHT22;8717;53.588;10.176;2023-11-21T00:42:11;7.20;99.90
17202;DHT22;8717;53.588;10.176;2023-11-21T00:44:38;7.20;99.90
17202;DHT22;8717;53.588;10.176;2023-11-21T00:47:05;7.10;99.90
17202;DHT22;8717;53.588;10.176;2023-11-21T00:49:33;7.00;99.90
17202;DHT22;8717;53.588;10.176;2023-11-21T00:52:00;7.00;99.90
17202;DHT22;8717;53.588;10.176;2023-11-21T00:54:27;6.90;99.90
17202;DHT22;8717;53.588;10.176;2023-11-21T00:56:55;6.90;99.90
17202;DHT22;8717;53.588;10.176;2023-11-21T00:59:22;6.90;99.90
17202;DHT22;8717;53.588;10.176;2023-11-21T01:01:49;6.80;99.90
17202;DHT22;8717;53.588;10.176;2023-11-21T01:04:16;6.80;99.90
17202;DHT22;8717;53.588;10.176;2023-11-21T01:06:43;6.80;99.90
17202;DHT22;8717;53.588;10.176;2023-11-21T01:09:10;6.80;99.90
17202;DHT22;8717;53.588;10.176;2023-11-21T01:11:38;6.80;99.90
17202;DHT22;8717;53.588;10.176;2023-11-21T01:14:06;6.70;99.90
17202;DHT22;8717;53.588;10.176;2023-11-21T01:16:34;6.70;99.90
17202;DHT22;8717;53.588;10.176;2023-11-21T01:19:03;6.70;99.90
17202;DHT22;8717;53.588;10.176;2023-11-21T01:21:30;6.70;99.90
17202;DHT22;8717;53.588;10.176;2023-11-21T01:23:57;6.70;99.90
17202;DHT22;8717;53.588;10.176;2023-11-21T01:26:24;6.70;99.90
17202;DHT22;8717;53.588;10.176;2023-11-21T01:28:51;6.70;99.90
17202;DHT22;8717;53.588;10.176;2023-11-21T01:31:19;6.70;99.90
17202;DHT22;8717;53.588;10.176;2023-11-21T01:33:46;6.60;99.90
17202;DHT22;8717;53.588;10.176;2023-11-21T01:36:14;6.60;99.90
17202;DHT22;8717;53.588;10.176;2023-11-21T01:38:41;6.60;99.90
17202;DHT22;8717;53.588;10.176;2023-11-21T01:41:09;6.60;99.90
17202;DHT22;8717;53.588;10.176;2023-11-21T01:43:37;6.60;99.90
17202;DHT22;8717;53.588;10.176;2023-11-21T01:46:04;6.60;99.90
17202;DHT22;8717;53.588;10.176;2023-11-21T01:48:34;6.50;99.90
17202;DHT22;8717;53.588;10.176;2023-11-21T01:51:01;6.50;99.90
17202;DHT22;8717;53.588;10.176;2023-11-21T01:53:28;6.50;99.90
17202;DHT22;8717;53.588;10.176;2023-11-21T01:55:56;6.50;99.90
17202;DHT22;8717;53.588;10.176;2023-11-21T01:58:23;6.50;99.90
17202;DHT22;8717;53.588;10.176;2023-11-21T02:00:50;6.50;99.90
17202;DHT22;8717;53.588;10.176;2023-11-21T02:03:20;6.40;99.90
17202;DHT22;8717;53.588;10.176;2023-11-21T02:05:49;6.40;99.90
17202;DHT22;8717;53.588;10.176;2023-11-21T02:08:18;6.40;99.90
17202;DHT22;8717;53.588;10.176;2023-11-21T02:10:45;6.40;99.90
17202;DHT22;8717;53.588;10.176;2023-11-21T02:13:13;6.40;99.90
17202;DHT22;8717;53.588;10.176;2023-11-21T02:15:42;6.40;99.90
17202;DHT22;8717;53.588;10.176;2023-11-21T02:18:09;6.30;99.90
17202;DHT22;8717;53.588;10.176;2023-11-21T02:20:37;6.30;99.90
17202;DHT22;8717;53.588;10.176;2023-11-21T02:23:08;6.30;99.90
17202;DHT22;8717;53.588;10.176;2023-11-21T02:25:36;6.30;99.90
17202;DHT22;8717;53.588;10.176;2023-11-21T02:28:04;6.20;99.90
17202;DHT22;8717;53.588;10.176;2023-11-21T02:30:32;6.20;99.90
17202;DHT22;8717;53.588;10.176;2023-11-21T02:32:59;6.20;99.90
17202;DHT22;8717;53.588;10.176;2023-11-21T02:35:26;6.20;99.90
17202;DHT22;8717;53.588;10.176;2023-11-21T02:37:53;6.20;99.90
17202;DHT22;8717;53.588;10.176;2023-11-21T02:40:21;6.20;99.90
17202;DHT22;8717;53.588;10.176;2023-11-21T02:42:50;6.20;99.90
17202;DHT22;8717;53.588;10.176;2023-11-21T02:45:18;6.10;99.90
17202;DHT22;8717;53.588;10.176;2023-11-21T02:47:46;6.10;99.90
17202;DHT22;8717;53.588;10.176;2023-11-21T02:50:14;6.10;99.90
17202;DHT22;8717;53.588;10.176;2023-11-21T02:52:41;6.00;99.90
17202;DHT22;8717;53.588;10.176;2023-11-21T02:55:08;6.10;99.90
17202;DHT22;8717;53.588;10.176;2023-11-21T02:57:37;6.10;99.90
17202;DHT22;8717;53.588;10.176;2023-11-21T03:00:05;6.10;99.90
17202;DHT22;8717;53.588;10.176;2023-11-21T03:02:33;6.10;99.90
17202;DHT22;8717;53.588;10.176;2023-11-21T03:05:02;6.10;99.90
17202;DHT22;8717;53.588;10.176;2023-11-21T03:07:30;6.10;99.90
17202;DHT22;8717;53.588;10.176;2023-11-21T03:09:57;6.10;99.90
17202;DHT22;8717;53.588;10.176;2023-11-21T03:12:24;6.10;99.90
17202;DHT22;8717;53.588;10.176;2023-11-21T03:14:52;6.00;99.90
17202;DHT22;8717;53.588;10.176;2023-11-21T03:17:21;6.00;99.90
17202;DHT22;8717;53.588;10.176;2023-11-21T03:19:47;6.00;99.90
17202;DHT22;8717;53.588;10.176;2023-11-21T03:22:14;6.00;99.90
17202;DHT22;8717;53.588;10.176;2023-11-21T03:24:41;6.00;99.90
17202;DHT22;8717;53.588;10.176;2023-11-21T03:27:07;6.00;99.90
17202;DHT22;8717;53.588;10.176;2023-11-21T03:29:34;6.00;99.90
17202;DHT22;8717;53.588;10.176;2023-11-21T03:32:02;5.90;99.90
17202;DHT22;8717;53.588;10.176;2023-11-21T03:34:29;5.90;99.90
17202;DHT22;8717;53.588;10.176;2023-11-21T03:36:56;5.90;99.90
17202;DHT22;8717;53.588;10.176;2023-11-21T03:39:24;5.90;99.90
17202;DHT22;8717;53.588;10.176;2023-11-21T03:41:51;5.80;99.90
17202;DHT22;8717;53.588;10.176;2023-11-21T03:44:18;5.80;99.90
17202;DHT22;8717;53.588;10.176;2023-11-21T03:46:45;5.80;99.90
17202;DHT22;8717;53.588;10.176;2023-11-21T03:49:13;5.80;99.90
17202;DHT22;8717;53.588;10.176;2023-11-21T03:51:41;5.70;99.90
17202;DHT22;8717;53.588;10.176;2023-11-21T03:54:07;5.70;99.90
17202;DHT22;8717;53.588;10.176;2023-11-21T03:56:37;5.70;99.90
17202;DHT22;8717;53.588;10.176;2023-11-21T03:59:03;5.70;99.90
17202;DHT22;8717;53.588;10.176;2023-11-21T04:01:30;5.70;99.90
17202;DHT22;8717;53.588;10.176;2023-11-21T04:03:57;5.70;99.90
17202;DHT22;8717;53.588;10.176;2023-11-21T04:06:26;5.70;99.90
17202;DHT22;8717;53.588;10.176;2023-11-21T04:08:53;5.70;99.90
17202;DHT22;8717;53.588;10.176;2023-11-21T04:11:20;5.70;99.90
17202;DHT22;8717;53.588;10.176;2023-11-21T04:13:47;5.70;99.90
17202;DHT22;8717;53.588;10.176;2023-11-21T04:16:14;5.70;99.90
17202;DHT22;8717;53.588;10.176;2023-11-21T04:18:41;5.70;99.90
17202;DHT22;8717;53.588;10.176;2023-11-21T04:21:08;5.70;99.90
17202;DHT22;8717;53.588;10.176;2023-11-21T04:23:36;5.70;99.90
17202;DHT22;8717;53.588;10.176;2023-11-21T04:26:05;5.70;99.90
17202;DHT22;8717;53.588;10.176;2023-11-21T04:28:32;5.70;99.90
17202;DHT22;8717;53.588;10.176;2023-11-21T04:31:00;5.80;99.90
17202;DHT22;8717;53.588;10.176;2023-11-21T04:33:27;5.80;99.90
17202;DHT22;8717;53.588;10.176;2023-11-21T04:35:55;5.80;99.90
17202;DHT22;8717;53.588;10.176;2023-11-21T04:38:22;5.80;99.90
17202;DHT22;8717;53.588;10.176;2023-11-21T04:40:50;5.80;99.90
17202;DHT22;8717;53.588;10.176;2023-11-21T04:43:17;5.80;99.90
17202;DHT22;8717;53.588;10.176;2023-11-21T04:45:44;5.80;99.90
17202;DHT22;8717;53.588;10.176;2023-11-21T04:48:11;5.80;99.90
17202;DHT22;8717;53.588;10.176;2023-11-21T04:50:38;5.80;99.90
17202;DHT22;8717;53.588;10.176;2023-11-21T04:53:05;5.80;99.90
17202;DHT22;8717;53.588;10.176;2023-11-21T04:55:32;5.80;99.90
17202;DHT22;8717;53.588;10.176;2023-11-21T04:58:00;5.80;99.90
17202;DHT22;8717;53.588;10.176;2023-11-21T05:00:27;5.90;99.90
17202;DHT22;8717;53.588;10.176;2023-11-21T05:02:54;5.90;99.90
17202;DHT22;8717;53.588;10.176;2023-11-21T05:05:20;5.90;99.90
17202;DHT22;8717;53.588;10.176;2023-11-21T05:07:47;5.90;99.90
17202;DHT22;8717;53.588;10.176;2023-11-21T05:10:14;5.90;99.90
17202;DHT22;8717;53.588;10.176;2023-11-21T05:12:41;5.90;99.90
17202;DHT22;8717;53.588;10.176;2023-11-21T05:15:13;5.90;99.90
17202;DHT22;8717;53.588;10.176;2023-11-21T05:17:41;5.90;99.90
17202;DHT22;8717;53.588;10.176;2023-11-21T05:20:09;5.90;99.90
17202;DHT22;8717;53.588;10.176;2023-11-21T05:22:37;5.90;99.90
17202;DHT22;8717;53.588;10.176;2023-11-21T05:25:05;5.90;99.90
17202;DHT22;8717;53.588;10.176;2023-11-21T05:27:33;5.90;99.90
17202;DHT22;8717;53.588;10.176;2023-11-21T05:30:01;5.90;99.90
17202;DHT22;8717;53.588;10.176;2023-11-21T05:32:29;5.90;99.90
17202;DHT22;8717;53.588;10.176;2023-11-21T05:34:55;5.80;99.90
17202;DHT22;8717;53.588;10.176;2023-11-21T05:37:22;5.80;99.90
17202;DHT22;8717;53.588;10.176;2023-11-21T05:39:49;5.80;99.90
17202;DHT22;8717;53.588;10.176;2023-11-21T05:42:16;5.80;99.90
17202;DHT22;8717;53.588;10.176;2023-11-21T05:44:43;5.80;99.90
17202;DHT22;8717;53.588;10.176;2023-11-21T05:47:09;5.80;99.90
17202;DHT22;8717;53.588;10.176;2023-11-21T05:49:37;5.80;99.90
17202;DHT22;8717;53.588;10.176;2023-11-21T05:52:05;5.80;99.90
17202;DHT22;8717;53.588;10.176;2023-11-21T05:54:32;5.80;99.90
17202;DHT22;8717;53.588;10.176;2023-11-21T05:56:59;5.70;99.90
17202;DHT22;8717;53.588;10.176;2023-11-21T05:59:26;5.70;99.90
17202;DHT22;8717;53.588;10.176;2023-11-21T06:01:53;5.70;99.90
17202;DHT22;8717;53.588;10.176;2023-11-21T06:04:20;5.70;99.90
17202;DHT22;8717;53.588;10.176;2023-11-21T06:06:51;5.70;99.90
17202;DHT22;8717;53.588;10.176;2023-11-21T06:09:19;5.70;99.90
17202;DHT22;8717;53.588;10.176;2023-11-21T06:11:46;5.70;99.90
17202;DHT22;8717;53.588;10.176;2023-11-21T06:14:13;5.70;99.90
17202;DHT22;8717;53.588;10.176;2023-11-21T06:16:43;5.70;99.90
17202;DHT22;8717;53.588;10.176;2023-11-21T06:19:11;5.70;99.90
17202;DHT22;8717;53.588;10.176;2023-11-21T06:21:37;5.70;99.90
17202;DHT22;8717;53.588;10.176;2023-11-21T06:24:05;5.70;99.90
17202;DHT22;8717;53.588;10.176;2023-11-21T06:26:32;5.70;99.90
17202;DHT22;8717;53.588;10.176;2023-11-21T06:29:00;5.70;99.90
17202;DHT22;8717;53.588;10.176;2023-11-21T06:31:29;5.70;99.90
17202;DHT22;8717;53.588;10.176;2023-11-21T06:33:58;5.70;99.90
17202;DHT22;8717;53.588;10.176;2023-11-21T06:36:25;5.80;99.90
17202;DHT22;8717;53.588;10.176;2023-11-21T06:38:52;5.80;99.90
17202;DHT22;8717;53.588;10.176;2023-11-21T06:41:20;5.80;99.90
17202;DHT22;8717;53.588;10.176;2023-11-21T06:43:47;5.80;99.90
17202;DHT22;8717;53.588;10.176;2023-11-21T06:46:14;5.80;99.90
17202;DHT22;8717;53.588;10.176;2023-11-21T06:48:42;5.80;99.90
17202;DHT22;8717;53.588;10.176;2023-11-21T06:51:09;5.80;99.90
17202;DHT22;8717;53.588;10.176;2023-11-21T06:53:36;5.80;99.90
17202;DHT22;8717;53.588;10.176;2023-11-21T06:56:03;5.80;99.90
17202;DHT22;8717;53.588;10.176;2023-11-21T06:58:33;5.80;99.90
17202;DHT22;8717;53.588;10.176;2023-11-21T07:01:00;5.70;99.90
17202;DHT22;8717;53.588;10.176;2023-11-21T07:03:27;5.90;99.90
17202;DHT22;8717;53.588;10.176;2023-11-21T07:05:54;5.90;99.90
17202;DHT22;8717;53.588;10.176;2023-11-21T07:08:20;5.80;99.90
17202;DHT22;8717;53.588;10.176;2023-11-21T07:10:48;5.90;99.90
17202;DHT22;8717;53.588;10.176;2023-11-21T07:13:14;5.90;99.90
17202;DHT22;8717;53.588;10.176;2023-11-21T07:15:42;5.90;99.90
17202;DHT22;8717;53.588;10.176;2023-11-21T07:18:10;5.90;99.90
17202;DHT22;8717;53.588;10.176;2023-11-21T07:20:37;5.90;99.90
17202;DHT22;8717;53.588;10.176;2023-11-21T07:23:03;5.90;99.90
17202;DHT22;8717;53.588;10.176;2023-11-21T07:25:31;5.90;99.90
17202;DHT22;8717;53.588;10.176;2023-11-21T07:27:59;5.90;99.90
17202;DHT22;8717;53.588;10.176;2023-11-21T07:30:26;5.90;99.90
17202;DHT22;8717;53.588;10.176;2023-11-21T07:32:54;5.90;99.90
17202;DHT22;8717;53.588;10.176;2023-11-21T07:35:21;5.90;99.90
17202;DHT22;8717;53.588;10.176;2023-11-21T07:37:47;5.90;99.90
17202;DHT22;8717;53.588;10.176;2023-11-21T07:40:14;5.90;99.90
17202;DHT22;8717;53.588;10.176;2023-11-21T07:42:42;5.90;99.90
17202;DHT22;8717;53.588;10.176;2023-11-21T07:45:10;5.90;99.90
17202;DHT22;8717;53.588;10.176;2023-11-21T07:47:37;5.80;99.90
17202;DHT22;8717;53.588;10.176;2023-11-21T07:50:07;5.90;99.90
17202;DHT22;8717;53.588;10.176;2023-11-21T07:52:34;5.90;99.90
17202;DHT22;8717;53.588;10.176;2023-11-21T07:55:01;5.90;99.90
17202;DHT22;8717;53.588;10.176;2023-11-21T07:57:28;5.90;99.90
17202;DHT22;8717;53.588;10.176;2023-11-21T07:59:54;5.90;99.90
17202;DHT22;8717;53.588;10.176;2023-11-21T08:02:21;5.90;99.90
17202;DHT22;8717;53.588;10.176;2023-11-21T08:04:48;5.90;99.90
17202;DHT22;8717;53.588;10.176;2023-11-21T08:07:17;5.90;99.90
17202;DHT22;8717;53.588;10.176;2023-11-21T08:09:44;6.00;99.90
17202;DHT22;8717;53.588;10.176;2023-11-21T08:12:12;6.00;99.90
17202;DHT22;8717;53.588;10.176;2023-11-21T08:14:40;6.00;99.90
17202;DHT22;8717;53.588;10.176;2023-11-21T08:17:07;6.00;99.90
17202;DHT22;8717;53.588;10.176;2023-11-21T08:19:35;6.00;99.90
17202;DHT22;8717;53.588;10.176;2023-11-21T08:22:03;6.10;99.90
17202;DHT22;8717;53.588;10.176;2023-11-21T08:24:31;6.10;99.90
17202;DHT22;8717;53.588;10.176;2023-11-21T08:26:58;6.10;99.90
17202;DHT22;8717;53.588;10.176;2023-11-21T08:29:24;6.20;99.90
17202;DHT22;8717;53.588;10.176;2023-11-21T08:31:52;6.20;99.90
17202;DHT22;8717;53.588;10.176;2023-11-21T08:34:19;6.20;99.90
17202;DHT22;8717;53.588;10.176;2023-11-21T08:36:46;6.20;99.90
17202;DHT22;8717;53.588;10.176;2023-11-21T08:39:12;6.20;99.90
17202;DHT22;8717;53.588;10.176;2023-11-21T08:41:43;6.20;99.90
17202;DHT22;8717;53.588;10.176;2023-11-21T08:44:10;6.20;99.90
17202;DHT22;8717;53.588;10.176;2023-11-21T08:46:36;6.20;99.90
17202;DHT22;8717;53.588;10.176;2023-11-21T08:49:04;6.20;99.90
17202;DHT22;8717;53.588;10.176;2023-11-21T08:51:31;6.20;99.90
17202;DHT22;8717;53.588;10.176;2023-11-21T08:53:58;6.20;99.90
17202;DHT22;8717;53.588;10.176;2023-11-21T08:56:27;6.20;99.90
17202;DHT22;8717;53.588;10.176;2023-11-21T08:58:55;6.20;99.90
17202;DHT22;8717;53.588;10.176;2023-11-21T09:01:22;6.20;99.90
17202;DHT22;8717;53.588;10.176;2023-11-21T09:03:50;6.20;99.90
17202;DHT22;8717;53.588;10.176;2023-11-21T09:06:17;6.20;99.90
17202;DHT22;8717;53.588;10.176;2023-11-21T09:08:44;6.30;99.90
17202;DHT22;8717;53.588;10.176;2023-11-21T09:11:11;6.20;99.90
17202;DHT22;8717;53.588;10.176;2023-11-21T09:13:38;6.30;99.90
17202;DHT22;8717;53.588;10.176;2023-11-21T09:16:06;6.20;99.90
17202;DHT22;8717;53.588;10.176;2023-11-21T09:18:33;6.20;99.90
17202;DHT22;8717;53.588;10.176;2023-11-21T09:21:00;6.20;99.90
17202;DHT22;8717;53.588;10.176;2023-11-21T09:23:27;6.20;99.90
17202;DHT22;8717;53.588;10.176;2023-11-21T09:25:54;6.20;99.90
17202;DHT22;8717;53.588;10.176;2023-11-21T09:28:22;6.30;99.90
17202;DHT22;8717;53.588;10.176;2023-11-21T09:30:49;6.30;99.90
17202;DHT22;8717;53.588;10.176;2023-11-21T09:33:17;6.40;99.90
17202;DHT22;8717;53.588;10.176;2023-11-21T09:35:44;6.40;99.90
17202;DHT22;8717;53.588;10.176;2023-11-21T09:38:11;6.50;99.90
17202;DHT22;8717;53.588;10.176;2023-11-21T09:40:38;6.50;99.90
17202;DHT22;8717;53.588;10.176;2023-11-21T09:43:06;6.50;99.90
17202;DHT22;8717;53.588;10.176;2023-11-21T09:45:36;6.50;99.90
17202;DHT22;8717;53.588;10.176;2023-11-21T09:48:05;6.60;99.90
17202;DHT22;8717;53.588;10.176;2023-11-21T09:50:34;6.50;99.90
17202;DHT22;8717;53.588;10.176;2023-11-21T09:53:15;6.50;99.90
17202;DHT22;8717;53.588;10.176;2023-11-21T09:55:45;6.60;99.90
17202;DHT22;8717;53.588;10.176;2023-11-21T09:58:14;6.50;99.90
17202;DHT22;8717;53.588;10.176;2023-11-21T10:00:42;6.60;99.90
17202;DHT22;8717;53.588;10.176;2023-11-21T10:03:09;6.60;99.90
17202;DHT22;8717;53.588;10.176;2023-11-21T10:05:37;6.50;99.90
17202;DHT22;8717;53.588;10.176;2023-11-21T10:08:08;6.60;99.90
17202;DHT22;8717;53.588;10.176;2023-11-21T10:10:35;6.60;99.90
17202;DHT22;8717;53.588;10.176;2023-11-21T10:13:04;6.70;99.90
17202;DHT22;8717;53.588;10.176;2023-11-21T10:15:33;6.70;99.90
17202;DHT22;8717;53.588;10.176;2023-11-21T10:18:02;6.80;99.90
17202;DHT22;8717;53.588;10.176;2023-11-21T10:20:30;6.80;99.90
17202;DHT22;8717;53.588;10.176;2023-11-21T10:23:00;6.80;99.90
17202;DHT22;8717;53.588;10.176;2023-11-21T10:25:28;6.80;99.90
17202;DHT22;8717;53.588;10.176;2023-11-21T10:27:58;6.90;99.90
17202;DHT22;8717;53.588;10.176;2023-11-21T10:30:30;6.90;99.90
17202;DHT22;8717;53.588;10.176;2023-11-21T10:32:58;6.90;99.90
17202;DHT22;8717;53.588;10.176;2023-11-21T10:35:38;6.90;99.90
17202;DHT22;8717;53.588;10.176;2023-11-21T10:38:06;7.00;99.90
17202;DHT22;8717;53.588;10.176;2023-11-21T10:40:37;7.10;99.90
17202;DHT22;8717;53.588;10.176;2023-11-21T10:43:06;7.10;99.90
17202;DHT22;8717;53.588;10.176;2023-11-21T10:45:34;7.10;99.90
17202;DHT22;8717;53.588;10.176;2023-11-21T10:48:05;7.10;99.90
17202;DHT22;8717;53.588;10.176;2023-11-21T10:50:33;7.10;99.90
17202;DHT22;8717;53.588;10.176;2023-11-21T10:53:02;7.10;99.90
17202;DHT22;8717;53.588;10.176;2023-11-21T10:55:31;7.10;99.90
17202;DHT22;8717;53.588;10.176;2023-11-21T10:57:59;7.10;99.90
17202;DHT22;8717;53.588;10.176;2023-11-21T11:00:27;7.10;99.90
17202;DHT22;8717;53.588;10.176;2023-11-21T11:02:55;7.00;99.90
17202;DHT22;8717;53.588;10.176;2023-11-21T11:05:23;7.00;99.90
17202;DHT22;8717;53.588;10.176;2023-11-21T11:07:52;7.00;99.90
17202;DHT22;8717;53.588;10.176;2023-11-21T11:10:25;6.90;99.90
17202;DHT22;8717;53.588;10.176;2023-11-21T11:12:54;6.90;99.90
17202;DHT22;8717;53.588;10.176;2023-11-21T11:15:21;6.80;99.90
17202;DHT22;8717;53.588;10.176;2023-11-21T11:17:48;6.80;99.90
17202;DHT22;8717;53.588;10.176;2023-11-21T11:20:16;6.80;99.90
17202;DHT22;8717;53.588;10.176;2023-11-21T11:22:54;6.80;99.90
17202;DHT22;8717;53.588;10.176;2023-11-21T11:25:35;6.80;99.90
17202;DHT22;8717;53.588;10.176;2023-11-21T11:28:08;6.80;99.90
17202;DHT22;8717;53.588;10.176;2023-11-21T11:30:47;6.90;99.90
17202;DHT22;8717;53.588;10.176;2023-11-21T11:33:23;6.90;99.90
17202;DHT22;8717;53.588;10.176;2023-11-21T11:35:57;6.90;99.90
17202;DHT22;8717;53.588;10.176;2023-11-21T11:38:31;7.00;99.90
17202;DHT22;8717;53.588;10.176;2023-11-21T11:41:01;7.00;99.90
17202;DHT22;8717;53.588;10.176;2023-11-21T11:43:31;7.00;99.90
17202;DHT22;8717;53.588;10.176;2023-11-21T11:46:05;7.00;99.90
17202;DHT22;8717;53.588;10.176;2023-11-21T11:48:37;7.00;99.90
17202;DHT22;8717;53.588;10.176;2023-11-21T11:51:06;7.00;99.90
17202;DHT22;8717;53.588;10.176;2023-11-21T11:53:39;7.00;99.90
17202;DHT22;8717;53.588;10.176;2023-11-21T11:56:24;7.00;99.90
17202;DHT22;8717;53.588;10.176;2023-11-21T11:58:54;7.00;99.90
17202;DHT22;8717;53.588;10.176;2023-11-21T12:01:23;7.00;99.90
17202;DHT22;8717;53.588;10.176;2023-11-21T12:04:24;6.90;99.90
17202;DHT22;8717;53.588;10.176;2023-11-21T12:06:58;6.80;99.90
17202;DHT22;8717;53.588;10.176;2023-11-21T12:09:28;6.80;99.90
17202;DHT22;8717;53.588;10.176;2023-11-21T12:11:56;6.80;99.90
17202;DHT22;8717;53.588;10.176;2023-11-21T12:14:24;6.80;99.90
17202;DHT22;8717;53.588;10.176;2023-11-21T12:16:51;6.80;99.90
17202;DHT22;8717;53.588;10.176;2023-11-21T12:19:19;6.80;99.90
17202;DHT22;8717;53.588;10.176;2023-11-21T12:21:47;6.80;99.90
17202;DHT22;8717;53.588;10.176;2023-11-21T12:24:14;6.80;99.90
17202;DHT22;8717;53.588;10.176;2023-11-21T12:26:42;6.90;99.90
17202;DHT22;8717;53.588;10.176;2023-11-21T12:29:09;6.90;99.90
17202;DHT22;8717;53.588;10.176;2023-11-21T12:31:37;6.90;99.90
17202;DHT22;8717;53.588;10.176;2023-11-21T12:34:04;6.80;99.90
17202;DHT22;8717;53.588;10.176;2023-11-21T12:36:32;6.80;99.90
17202;DHT22;8717;53.588;10.176;2023-11-21T12:39:00;6.70;99.90
17202;DHT22;8717;53.588;10.176;2023-11-21T12:41:28;6.70;99.90
17202;DHT22;8717;53.588;10.176;2023-11-21T12:43:56;6.60;99.90
17202;DHT22;8717;53.588;10.176;2023-11-21T12:46:23;6.50;99.90
17202;DHT22;8717;53.588;10.176;2023-11-21T12:48:52;6.50;99.90
17202;DHT22;8717;53.588;10.176;2023-11-21T12:51:21;6.50;99.90
17202;DHT22;8717;53.588;10.176;2023-11-21T12:53:48;6.50;99.90
17202;DHT22;8717;53.588;10.176;2023-11-21T12:56:15;6.50;99.90
17202;DHT22;8717;53.588;10.176;2023-11-21T12:58:45;6.50;99.90
17202;DHT22;8717;53.588;10.176;2023-11-21T13:01:13;6.50;99.90
17202;DHT22;8717;53.588;10.176;2023-11-21T13:03:46;6.50;99.90
17202;DHT22;8717;53.588;10.176;2023-11-21T13:06:18;6.50;99.90
17202;DHT22;8717;53.588;10.176;2023-11-21T13:08:50;6.50;99.90
17202;DHT22;8717;53.588;10.176;2023-11-21T13:11:17;6.50;99.90
17202;DHT22;8717;53.588;10.176;2023-11-21T13:13:44;6.40;99.90
17202;DHT22;8717;53.588;10.176;2023-11-21T13:16:11;6.40;99.90
17202;DHT22;8717;53.588;10.176;2023-11-21T13:18:38;6.40;99.90
17202;DHT22;8717;53.588;10.176;2023-11-21T13:21:08;6.30;99.90
17202;DHT22;8717;53.588;10.176;2023-11-21T13:23:41;6.30;99.90
17202;DHT22;8717;53.588;10.176;2023-11-21T13:26:11;6.30;99.90
17202;DHT22;8717;53.588;10.176;2023-11-21T13:28:40;6.20;99.90
17202;DHT22;8717;53.588;10.176;2023-11-21T13:31:11;6.20;99.90
17202;DHT22;8717;53.588;10.176;2023-11-21T13:33:47;6.20;99.90
17202;DHT22;8717;53.588;10.176;2023-11-21T13:36:20;6.10;99.90
17202;DHT22;8717;53.588;10.176;2023-11-21T13:38:50;6.10;99.90
17202;DHT22;8717;53.588;10.176;2023-11-21T13:41:19;6.10;99.90
17202;DHT22;8717;53.588;10.176;2023-11-21T13:43:48;6.10;99.90
17202;DHT22;8717;53.588;10.176;2023-11-21T13:46:22;6.10;99.90
17202;DHT22;8717;53.588;10.176;2023-11-21T13:48:49;6.10;99.90
17202;DHT22;8717;53.588;10.176;2023-11-21T13:51:21;6.10;99.90
17202;DHT22;8717;53.588;10.176;2023-11-21T13:53:58;6.10;99.90
17202;DHT22;8717;53.588;10.176;2023-11-21T13:56:24;6.10;99.90
17202;DHT22;8717;53.588;10.176;2023-11-21T13:58:54;6.10;99.90
17202;DHT22;8717;53.588;10.176;2023-11-21T14:01:22;6.00;99.90
17202;DHT22;8717;53.588;10.176;2023-11-21T14:04:10;6.00;99.90
17202;DHT22;8717;53.588;10.176;2023-11-21T14:06:46;5.90;99.90
17202;DHT22;8717;53.588;10.176;2023-11-21T14:09:16;5.90;99.90
17202;DHT22;8717;53.588;10.176;2023-11-21T14:11:51;5.90;99.90
17202;DHT22;8717;53.588;10.176;2023-11-21T14:14:19;5.80;99.90
17202;DHT22;8717;53.588;10.176;2023-11-21T14:16:46;5.80;99.90
17202;DHT22;8717;53.588;10.176;2023-11-21T14:19:13;5.70;99.90
17202;DHT22;8717;53.588;10.176;2023-11-21T14:21:43;5.70;99.90
17202;DHT22;8717;53.588;10.176;2023-11-21T14:24:10;5.70;99.90
17202;DHT22;8717;53.588;10.176;2023-11-21T14:26:40;5.60;99.90
17202;DHT22;8717;53.588;10.176;2023-11-21T14:29:08;5.60;99.90
17202;DHT22;8717;53.588;10.176;2023-11-21T14:31:38;5.50;99.90
17202;DHT22;8717;53.588;10.176;2023-11-21T14:34:04;5.50;99.90
17202;DHT22;8717;53.588;10.176;2023-11-21T14:36:32;5.50;99.90
17202;DHT22;8717;53.588;10.176;2023-11-21T14:38:59;5.40;99.90
17202;DHT22;8717;53.588;10.176;2023-11-21T14:41:25;5.40;99.90
17202;DHT22;8717;53.588;10.176;2023-11-21T14:43:54;5.40;99.90
17202;DHT22;8717;53.588;10.176;2023-11-21T14:46:23;5.30;99.90
17202;DHT22;8717;53.588;10.176;2023-11-21T14:48:49;5.30;99.90
17202;DHT22;8717;53.588;10.176;2023-11-21T14:51:24;5.30;99.90
17202;DHT22;8717;53.588;10.176;2023-11-21T14:53:57;5.30;99.90
17202;DHT22;8717;53.588;10.176;2023-11-21T14:56:31;5.30;99.90
17202;DHT22;8717;53.588;10.176;2023-11-21T14:59:01;5.30;99.90
17202;DHT22;8717;53.588;10.176;2023-11-21T15:01:32;5.30;99.90
17202;DHT22;8717;53.588;10.176;2023-11-21T15:04:11;5.30;99.90
17202;DHT22;8717;53.588;10.176;2023-11-21T15:06:49;5.30;99.90
17202;DHT22;8717;53.588;10.176;2023-11-21T15:09:18;5.20;99.90
17202;DHT22;8717;53.588;10.176;2023-11-21T15:12:02;5.10;99.90
17202;DHT22;8717;53.588;10.176;2023-11-21T15:14:41;5.10;99.90
17202;DHT22;8717;53.588;10.176;2023-11-21T15:17:08;5.10;99.90
17202;DHT22;8717;53.588;10.176;2023-11-21T15:19:35;5.00;99.90
17202;DHT22;8717;53.588;10.176;2023-11-21T15:22:02;4.90;99.90
17202;DHT22;8717;53.588;10.176;2023-11-21T15:24:29;4.90;99.90
17202;DHT22;8717;53.588;10.176;2023-11-21T15:26:56;4.80;99.90
17202;DHT22;8717;53.588;10.176;2023-11-21T15:29:23;4.70;99.90
17202;DHT22;8717;53.588;10.176;2023-11-21T15:31:52;4.70;99.90
17202;DHT22;8717;53.588;10.176;2023-11-21T15:34:22;4.70;99.90
17202;DHT22;8717;53.588;10.176;2023-11-21T15:36:49;4.70;99.90
17202;DHT22;8717;53.588;10.176;2023-11-21T15:39:18;4.60;99.90
17202;DHT22;8717;53.588;10.176;2023-11-21T15:41:47;4.70;99.90
17202;DHT22;8717;53.588;10.176;2023-11-21T15:44:14;4.60;99.90
17202;DHT22;8717;53.588;10.176;2023-11-21T15:46:40;4.60;99.90
17202;DHT22;8717;53.588;10.176;2023-11-21T15:49:10;4.60;99.90
17202;DHT22;8717;53.588;10.176;2023-11-21T15:51:39;4.60;99.90